sensor_id;sensor_type;location;lat;lon;timestamp;P1;durP1;ratioP1;P2;durP2;ratioP2
39694;SDS011;25367;-35.352;149.036;2023-04-25T00:01:47;10.13;;;1.88;;
39694;SDS011;25367;-35.352;149.036;2023-04-25T00:04:18;10.88;;;2.30;;
39694;SDS011;25367;-35.352;149.036;2023-04-25T00:06:51;12.18;;;2.13;;
39694;SDS011;25367;-35.352;149.036;2023-04-25T00:09:20;6.32;;;2.00;;
39694;SDS011;25367;-35.352;149.036;2023-04-25T00:11:50;6.38;;;1.95;;
39694;SDS011;25367;-35.352;149.036;2023-04-25T00:14:19;9.38;;;1.65;;
39694;SDS011;25367;-35.352;149.036;2023-04-25T00:16:51;5.57;;;1.90;;
39694;SDS011;25367;-35.352;149.036;2023-04-25T00:19:20;9.63;;;2.08;;
39694;SDS011;25367;-35.352;149.036;2023-04-25T00:21:50;8.18;;;1.77;;
39694;SDS011;25367;-35.352;149.036;2023-04-25T00:24:19;5.95;;;2.03;;
39694;SDS011;25367;-35.352;149.036;2023-04-25T00:26:52;5.82;;;1.65;;
39694;SDS011;25367;-35.352;149.036;2023-04-25T00:29:21;6.22;;;1.88;;
39694;SDS011;25367;-35.352;149.036;2023-04-25T00:31:52;8.35;;;1.95;;
39694;SDS011;25367;-35.352;149.036;2023-04-25T00:34:22;6.75;;;1.73;;
39694;SDS011;25367;-35.352;149.036;2023-04-25T00:36:51;7.00;;;1.80;;
39694;SDS011;25367;-35.352;149.036;2023-04-25T00:39:21;8.15;;;1.65;;
39694;SDS011;25367;-35.352;149.036;2023-04-25T00:41:50;3.65;;;1.95;;
39694;SDS011;25367;-35.352;149.036;2023-04-25T00:44:21;3.85;;;1.73;;
39694;SDS011;25367;-35.352;149.036;2023-04-25T00:46:53;6.75;;;1.83;;
39694;SDS011;25367;-35.352;149.036;2023-04-25T00:49:23;5.25;;;1.20;;
39694;SDS011;25367;-35.352;149.036;2023-04-25T00:51:52;2.88;;;1.23;;
39694;SDS011;25367;-35.352;149.036;2023-04-25T00:54:22;7.28;;;1.77;;
39694;SDS011;25367;-35.352;149.036;2023-04-25T00:56:52;6.78;;;1.77;;
39694;SDS011;25367;-35.352;149.036;2023-04-25T00:59:21;3.58;;;1.50;;
39694;SDS011;25367;-35.352;149.036;2023-04-25T01:01:51;3.60;;;1.45;;
39694;SDS011;25367;-35.352;149.036;2023-04-25T01:04:22;5.55;;;1.67;;
39694;SDS011;25367;-35.352;149.036;2023-04-25T01:06:52;4.38;;;1.58;;
39694;SDS011;25367;-35.352;149.036;2023-04-25T01:09:21;3.50;;;1.55;;
39694;SDS011;25367;-35.352;149.036;2023-04-25T01:11:51;3.05;;;1.50;;
39694;SDS011;25367;-35.352;149.036;2023-04-25T01:14:20;3.15;;;1.20;;
39694;SDS011;25367;-35.352;149.036;2023-04-25T01:16:50;6.82;;;1.80;;
39694;SDS011;25367;-35.352;149.036;2023-04-25T01:19:22;4.75;;;1.60;;
39694;SDS011;25367;-35.352;149.036;2023-04-25T01:21:54;5.88;;;1.70;;
39694;SDS011;25367;-35.352;149.036;2023-04-25T01:24:24;3.72;;;1.25;;
39694;SDS011;25367;-35.352;149.036;2023-04-25T01:26:53;5.05;;;1.60;;
39694;SDS011;25367;-35.352;149.036;2023-04-25T01:29:25;3.78;;;1.30;;
39694;SDS011;25367;-35.352;149.036;2023-04-25T01:31:56;4.45;;;1.73;;
39694;SDS011;25367;-35.352;149.036;2023-04-25T01:34:26;3.45;;;1.42;;
39694;SDS011;25367;-35.352;149.036;2023-04-25T01:37:01;3.40;;;1.47;;
39694;SDS011;25367;-35.352;149.036;2023-04-25T01:39:30;4.68;;;1.30;;
39694;SDS011;25367;-35.352;149.036;2023-04-25T01:42:00;6.68;;;1.70;;
39694;SDS011;25367;-35.352;149.036;2023-04-25T01:44:31;3.55;;;1.30;;
39694;SDS011;25367;-35.352;149.036;2023-04-25T01:47:01;5.63;;;1.60;;
39694;SDS011;25367;-35.352;149.036;2023-04-25T01:49:31;4.30;;;1.30;;
39694;SDS011;25367;-35.352;149.036;2023-04-25T01:52:03;5.35;;;1.40;;
39694;SDS011;25367;-35.352;149.036;2023-04-25T01:54:32;4.78;;;1.35;;
39694;SDS011;25367;-35.352;149.036;2023-04-25T01:57:01;3.38;;;1.67;;
39694;SDS011;25367;-35.352;149.036;2023-04-25T01:59:32;3.40;;;1.45;;
39694;SDS011;25367;-35.352;149.036;2023-04-25T02:02:17;2.67;;;1.27;;
39694;SDS011;25367;-35.352;149.036;2023-04-25T02:04:47;4.45;;;1.17;;
39694;SDS011;25367;-35.352;149.036;2023-04-25T02:07:18;5.25;;;1.30;;
39694;SDS011;25367;-35.352;149.036;2023-04-25T02:09:53;5.30;;;1.08;;
39694;SDS011;25367;-35.352;149.036;2023-04-25T02:12:24;1.92;;;1.00;;
39694;SDS011;25367;-35.352;149.036;2023-04-25T02:15:03;5.20;;;1.17;;
39694;SDS011;25367;-35.352;149.036;2023-04-25T02:17:41;2.35;;;1.02;;
39694;SDS011;25367;-35.352;149.036;2023-04-25T02:20:12;3.05;;;1.33;;
39694;SDS011;25367;-35.352;149.036;2023-04-25T02:22:43;11.35;;;1.45;;
39694;SDS011;25367;-35.352;149.036;2023-04-25T02:25:13;5.38;;;1.48;;
39694;SDS011;25367;-35.352;149.036;2023-04-25T02:27:42;4.95;;;1.02;;
39694;SDS011;25367;-35.352;149.036;2023-04-25T02:30:12;7.40;;;1.98;;
39694;SDS011;25367;-35.352;149.036;2023-04-25T02:32:41;6.00;;;1.40;;
39694;SDS011;25367;-35.352;149.036;2023-04-25T02:35:11;4.10;;;1.00;;
39694;SDS011;25367;-35.352;149.036;2023-04-25T02:37:40;5.95;;;1.17;;
39694;SDS011;25367;-35.352;149.036;2023-04-25T02:40:14;5.80;;;1.40;;
39694;SDS011;25367;-35.352;149.036;2023-04-25T02:42:43;3.53;;;0.93;;
39694;SDS011;25367;-35.352;149.036;2023-04-25T02:45:13;5.18;;;1.02;;
39694;SDS011;25367;-35.352;149.036;2023-04-25T02:47:42;9.65;;;1.50;;
39694;SDS011;25367;-35.352;149.036;2023-04-25T02:50:12;6.70;;;1.25;;
39694;SDS011;25367;-35.352;149.036;2023-04-25T02:52:43;4.40;;;1.25;;
39694;SDS011;25367;-35.352;149.036;2023-04-25T02:55:16;6.40;;;1.27;;
39694;SDS011;25367;-35.352;149.036;2023-04-25T02:57:47;5.65;;;1.30;;
39694;SDS011;25367;-35.352;149.036;2023-04-25T03:00:27;3.28;;;1.17;;
39694;SDS011;25367;-35.352;149.036;2023-04-25T03:02:56;3.28;;;1.33;;
39694;SDS011;25367;-35.352;149.036;2023-04-25T03:05:26;3.13;;;1.15;;
39694;SDS011;25367;-35.352;149.036;2023-04-25T03:07:57;4.80;;;1.60;;
39694;SDS011;25367;-35.352;149.036;2023-04-25T03:10:28;4.97;;;1.48;;
39694;SDS011;25367;-35.352;149.036;2023-04-25T03:13:01;7.47;;;1.27;;
39694;SDS011;25367;-35.352;149.036;2023-04-25T03:15:30;6.78;;;1.85;;
39694;SDS011;25367;-35.352;149.036;2023-04-25T03:18:00;3.00;;;1.15;;
39694;SDS011;25367;-35.352;149.036;2023-04-25T03:20:29;7.22;;;1.70;;
39694;SDS011;25367;-35.352;149.036;2023-04-25T03:23:00;4.70;;;1.17;;
39694;SDS011;25367;-35.352;149.036;2023-04-25T03:25:30;8.50;;;1.52;;
39694;SDS011;25367;-35.352;149.036;2023-04-25T03:28:00;4.05;;;1.30;;
39694;SDS011;25367;-35.352;149.036;2023-04-25T03:30:30;5.32;;;1.23;;
39694;SDS011;25367;-35.352;149.036;2023-04-25T03:32:59;3.00;;;1.30;;
39694;SDS011;25367;-35.352;149.036;2023-04-25T03:35:28;6.80;;;1.50;;
39694;SDS011;25367;-35.352;149.036;2023-04-25T03:37:58;9.38;;;1.50;;
39694;SDS011;25367;-35.352;149.036;2023-04-25T03:40:34;9.68;;;1.65;;
39694;SDS011;25367;-35.352;149.036;2023-04-25T03:43:09;6.60;;;1.38;;
39694;SDS011;25367;-35.352;149.036;2023-04-25T03:45:42;12.10;;;1.60;;
39694;SDS011;25367;-35.352;149.036;2023-04-25T03:48:11;7.35;;;1.95;;
39694;SDS011;25367;-35.352;149.036;2023-04-25T03:50:41;15.38;;;2.13;;
39694;SDS011;25367;-35.352;149.036;2023-04-25T03:53:12;11.57;;;1.40;;
39694;SDS011;25367;-35.352;149.036;2023-04-25T03:56:01;5.93;;;1.65;;
39694;SDS011;25367;-35.352;149.036;2023-04-25T03:58:34;6.27;;;1.40;;
39694;SDS011;25367;-35.352;149.036;2023-04-25T04:01:04;6.80;;;1.40;;
39694;SDS011;25367;-35.352;149.036;2023-04-25T04:03:33;9.73;;;2.10;;
39694;SDS011;25367;-35.352;149.036;2023-04-25T04:06:03;6.30;;;1.67;;
39694;SDS011;25367;-35.352;149.036;2023-04-25T04:08:39;6.65;;;1.75;;
39694;SDS011;25367;-35.352;149.036;2023-04-25T04:13:39;14.00;;;1.98;;
39694;SDS011;25367;-35.352;149.036;2023-04-25T04:16:09;15.18;;;2.28;;
39694;SDS011;25367;-35.352;149.036;2023-04-25T04:18:38;11.68;;;1.95;;
39694;SDS011;25367;-35.352;149.036;2023-04-25T04:21:07;11.60;;;2.08;;
39694;SDS011;25367;-35.352;149.036;2023-04-25T04:23:42;16.38;;;2.30;;
39694;SDS011;25367;-35.352;149.036;2023-04-25T04:26:12;6.43;;;1.30;;
39694;SDS011;25367;-35.352;149.036;2023-04-25T04:28:56;11.85;;;1.65;;
39694;SDS011;25367;-35.352;149.036;2023-04-25T04:31:41;7.97;;;2.03;;
39694;SDS011;25367;-35.352;149.036;2023-04-25T04:34:11;6.43;;;1.25;;
39694;SDS011;25367;-35.352;149.036;2023-04-25T04:36:41;7.13;;;1.50;;
39694;SDS011;25367;-35.352;149.036;2023-04-25T04:39:12;11.82;;;2.20;;
39694;SDS011;25367;-35.352;149.036;2023-04-25T04:41:57;7.55;;;1.75;;
39694;SDS011;25367;-35.352;149.036;2023-04-25T04:44:46;5.13;;;1.70;;
39694;SDS011;25367;-35.352;149.036;2023-04-25T04:47:41;6.65;;;1.88;;
39694;SDS011;25367;-35.352;149.036;2023-04-25T04:50:21;13.15;;;5.85;;
39694;SDS011;25367;-35.352;149.036;2023-04-25T04:53:28;34.85;;;18.63;;
39694;SDS011;25367;-35.352;149.036;2023-04-25T04:56:25;44.05;;;26.27;;
39694;SDS011;25367;-35.352;149.036;2023-04-25T04:59:01;52.45;;;29.30;;
39694;SDS011;25367;-35.352;149.036;2023-04-25T05:01:40;64.78;;;44.45;;
39694;SDS011;25367;-35.352;149.036;2023-04-25T05:04:25;86.63;;;56.13;;
39694;SDS011;25367;-35.352;149.036;2023-04-25T05:07:12;85.53;;;57.88;;
39694;SDS011;25367;-35.352;149.036;2023-04-25T05:10:04;84.93;;;58.03;;
39694;SDS011;25367;-35.352;149.036;2023-04-25T05:13:05;83.10;;;57.10;;
39694;SDS011;25367;-35.352;149.036;2023-04-25T05:16:03;84.40;;;59.17;;
39694;SDS011;25367;-35.352;149.036;2023-04-25T05:18:47;84.93;;;62.20;;
39694;SDS011;25367;-35.352;149.036;2023-04-25T05:21:36;94.03;;;68.22;;
39694;SDS011;25367;-35.352;149.036;2023-04-25T05:24:10;95.68;;;67.22;;
39694;SDS011;25367;-35.352;149.036;2023-04-25T05:26:57;98.55;;;69.63;;
39694;SDS011;25367;-35.352;149.036;2023-04-25T05:29:44;90.15;;;69.10;;
39694;SDS011;25367;-35.352;149.036;2023-04-25T05:32:36;99.03;;;70.50;;
39694;SDS011;25367;-35.352;149.036;2023-04-25T05:35:05;101.97;;;72.95;;
39694;SDS011;25367;-35.352;149.036;2023-04-25T05:37:42;95.68;;;72.60;;
39694;SDS011;25367;-35.352;149.036;2023-04-25T05:40:14;97.70;;;71.95;;
39694;SDS011;25367;-35.352;149.036;2023-04-25T05:42:52;94.93;;;69.40;;
39694;SDS011;25367;-35.352;149.036;2023-04-25T05:45:30;103.10;;;71.10;;
39694;SDS011;25367;-35.352;149.036;2023-04-25T05:48:05;93.20;;;70.35;;
39694;SDS011;25367;-35.352;149.036;2023-04-25T05:51:04;88.00;;;68.00;;
39694;SDS011;25367;-35.352;149.036;2023-04-25T05:54:02;88.72;;;66.38;;
39694;SDS011;25367;-35.352;149.036;2023-04-25T05:56:34;83.63;;;64.15;;
39694;SDS011;25367;-35.352;149.036;2023-04-25T05:59:03;76.65;;;59.25;;
39694;SDS011;25367;-35.352;149.036;2023-04-25T06:01:35;74.53;;;60.63;;
39694;SDS011;25367;-35.352;149.036;2023-04-25T06:04:07;82.57;;;59.28;;
39694;SDS011;25367;-35.352;149.036;2023-04-25T06:06:39;92.05;;;59.00;;
39694;SDS011;25367;-35.352;149.036;2023-04-25T06:09:08;81.20;;;56.42;;
39694;SDS011;25367;-35.352;149.036;2023-04-25T06:11:39;73.70;;;56.72;;
39694;SDS011;25367;-35.352;149.036;2023-04-25T06:14:11;71.25;;;54.92;;
39694;SDS011;25367;-35.352;149.036;2023-04-25T06:16:48;77.60;;;55.70;;
39694;SDS011;25367;-35.352;149.036;2023-04-25T06:19:19;79.30;;;55.40;;
39694;SDS011;25367;-35.352;149.036;2023-04-25T06:21:50;71.00;;;51.63;;
39694;SDS011;25367;-35.352;149.036;2023-04-25T06:24:22;71.47;;;53.40;;
39694;SDS011;25367;-35.352;149.036;2023-04-25T06:26:55;68.40;;;52.28;;
39694;SDS011;25367;-35.352;149.036;2023-04-25T06:29:26;73.18;;;50.58;;
39694;SDS011;25367;-35.352;149.036;2023-04-25T06:31:57;72.00;;;51.45;;
39694;SDS011;25367;-35.352;149.036;2023-04-25T06:34:28;70.13;;;52.78;;
39694;SDS011;25367;-35.352;149.036;2023-04-25T06:39:31;65.85;;;49.00;;
39694;SDS011;25367;-35.352;149.036;2023-04-25T06:42:02;65.90;;;51.30;;
39694;SDS011;25367;-35.352;149.036;2023-04-25T06:44:43;64.72;;;47.58;;
39694;SDS011;25367;-35.352;149.036;2023-04-25T06:47:16;68.47;;;47.35;;
39694;SDS011;25367;-35.352;149.036;2023-04-25T06:49:47;60.55;;;47.30;;
39694;SDS011;25367;-35.352;149.036;2023-04-25T06:54:52;58.80;;;44.60;;
39694;SDS011;25367;-35.352;149.036;2023-04-25T06:57:54;63.22;;;46.88;;
39694;SDS011;25367;-35.352;149.036;2023-04-25T07:00:41;60.20;;;45.63;;
39694;SDS011;25367;-35.352;149.036;2023-04-25T07:03:13;61.90;;;45.03;;
39694;SDS011;25367;-35.352;149.036;2023-04-25T07:05:44;60.17;;;42.83;;
39694;SDS011;25367;-35.352;149.036;2023-04-25T07:08:14;67.93;;;46.22;;
39694;SDS011;25367;-35.352;149.036;2023-04-25T07:10:45;55.88;;;43.85;;
39694;SDS011;25367;-35.352;149.036;2023-04-25T07:13:15;66.13;;;42.83;;
39694;SDS011;25367;-35.352;149.036;2023-04-25T07:15:49;62.95;;;43.83;;
39694;SDS011;25367;-35.352;149.036;2023-04-25T07:18:24;50.37;;;39.87;;
39694;SDS011;25367;-35.352;149.036;2023-04-25T07:20:56;50.80;;;39.40;;
39694;SDS011;25367;-35.352;149.036;2023-04-25T07:23:26;60.55;;;41.03;;
39694;SDS011;25367;-35.352;149.036;2023-04-25T07:25:57;57.97;;;41.65;;
39694;SDS011;25367;-35.352;149.036;2023-04-25T07:28:28;52.03;;;40.13;;
39694;SDS011;25367;-35.352;149.036;2023-04-25T07:30:59;49.95;;;38.92;;
39694;SDS011;25367;-35.352;149.036;2023-04-25T07:33:33;58.30;;;37.03;;
39694;SDS011;25367;-35.352;149.036;2023-04-25T07:36:05;49.75;;;36.58;;
39694;SDS011;25367;-35.352;149.036;2023-04-25T07:38:36;49.45;;;37.67;;
39694;SDS011;25367;-35.352;149.036;2023-04-25T07:41:07;54.58;;;39.75;;
39694;SDS011;25367;-35.352;149.036;2023-04-25T07:46:10;49.33;;;38.08;;
39694;SDS011;25367;-35.352;149.036;2023-04-25T07:48:46;45.65;;;37.10;;
39694;SDS011;25367;-35.352;149.036;2023-04-25T07:51:16;47.22;;;36.35;;
39694;SDS011;25367;-35.352;149.036;2023-04-25T07:53:47;52.92;;;37.78;;
39694;SDS011;25367;-35.352;149.036;2023-04-25T07:56:17;55.33;;;34.17;;
39694;SDS011;25367;-35.352;149.036;2023-04-25T07:58:50;49.03;;;34.90;;
39694;SDS011;25367;-35.352;149.036;2023-04-25T08:01:20;45.50;;;34.42;;
39694;SDS011;25367;-35.352;149.036;2023-04-25T08:04:07;46.03;;;35.65;;
39694;SDS011;25367;-35.352;149.036;2023-04-25T08:07:00;46.95;;;35.50;;
39694;SDS011;25367;-35.352;149.036;2023-04-25T08:09:37;48.05;;;34.45;;
39694;SDS011;25367;-35.352;149.036;2023-04-25T08:12:12;46.85;;;34.10;;
39694;SDS011;25367;-35.352;149.036;2023-04-25T08:14:45;42.97;;;34.10;;
39694;SDS011;25367;-35.352;149.036;2023-04-25T08:17:15;42.38;;;32.45;;
39694;SDS011;25367;-35.352;149.036;2023-04-25T08:19:51;42.83;;;31.17;;
39694;SDS011;25367;-35.352;149.036;2023-04-25T08:22:29;44.10;;;33.50;;
39694;SDS011;25367;-35.352;149.036;2023-04-25T08:25:16;50.40;;;32.25;;
39694;SDS011;25367;-35.352;149.036;2023-04-25T08:27:48;40.83;;;32.03;;
39694;SDS011;25367;-35.352;149.036;2023-04-25T08:30:30;42.67;;;33.67;;
39694;SDS011;25367;-35.352;149.036;2023-04-25T08:33:00;41.90;;;31.92;;
39694;SDS011;25367;-35.352;149.036;2023-04-25T08:35:55;36.72;;;30.83;;
39694;SDS011;25367;-35.352;149.036;2023-04-25T08:38:26;37.05;;;29.70;;
39694;SDS011;25367;-35.352;149.036;2023-04-25T08:40:56;41.53;;;30.60;;
39694;SDS011;25367;-35.352;149.036;2023-04-25T08:43:28;39.38;;;29.48;;
39694;SDS011;25367;-35.352;149.036;2023-04-25T08:45:59;37.10;;;28.58;;
39694;SDS011;25367;-35.352;149.036;2023-04-25T08:48:42;36.10;;;28.88;;
39694;SDS011;25367;-35.352;149.036;2023-04-25T08:51:20;39.60;;;29.02;;
39694;SDS011;25367;-35.352;149.036;2023-04-25T08:53:52;38.47;;;28.40;;
39694;SDS011;25367;-35.352;149.036;2023-04-25T08:56:25;41.47;;;27.05;;
39694;SDS011;25367;-35.352;149.036;2023-04-25T08:58:56;51.92;;;28.27;;
39694;SDS011;25367;-35.352;149.036;2023-04-25T09:01:27;51.15;;;28.30;;
39694;SDS011;25367;-35.352;149.036;2023-04-25T09:03:58;43.33;;;28.17;;
39694;SDS011;25367;-35.352;149.036;2023-04-25T09:06:34;38.15;;;27.58;;
39694;SDS011;25367;-35.352;149.036;2023-04-25T09:09:05;31.70;;;27.25;;
39694;SDS011;25367;-35.352;149.036;2023-04-25T09:11:36;35.45;;;27.63;;
39694;SDS011;25367;-35.352;149.036;2023-04-25T09:14:14;34.38;;;25.33;;
39694;SDS011;25367;-35.352;149.036;2023-04-25T09:17:15;36.72;;;26.05;;
39694;SDS011;25367;-35.352;149.036;2023-04-25T09:19:54;29.40;;;23.55;;
39694;SDS011;25367;-35.352;149.036;2023-04-25T09:22:42;32.33;;;24.05;;
39694;SDS011;25367;-35.352;149.036;2023-04-25T09:25:17;29.63;;;22.90;;
39694;SDS011;25367;-35.352;149.036;2023-04-25T09:27:51;29.73;;;23.33;;
39694;SDS011;25367;-35.352;149.036;2023-04-25T09:30:32;30.92;;;22.85;;
39694;SDS011;25367;-35.352;149.036;2023-04-25T09:33:31;30.77;;;22.52;;
39694;SDS011;25367;-35.352;149.036;2023-04-25T09:36:03;26.98;;;22.33;;
39694;SDS011;25367;-35.352;149.036;2023-04-25T09:38:52;25.17;;;20.45;;
39694;SDS011;25367;-35.352;149.036;2023-04-25T09:41:28;30.38;;;22.80;;
39694;SDS011;25367;-35.352;149.036;2023-04-25T09:44:02;25.48;;;19.15;;
39694;SDS011;25367;-35.352;149.036;2023-04-25T09:46:40;26.23;;;20.48;;
39694;SDS011;25367;-35.352;149.036;2023-04-25T09:49:20;27.65;;;20.75;;
39694;SDS011;25367;-35.352;149.036;2023-04-25T09:52:13;30.65;;;22.15;;
39694;SDS011;25367;-35.352;149.036;2023-04-25T09:54:58;34.03;;;21.02;;
39694;SDS011;25367;-35.352;149.036;2023-04-25T09:57:35;32.78;;;23.45;;
39694;SDS011;25367;-35.352;149.036;2023-04-25T10:00:06;33.30;;;24.00;;
39694;SDS011;25367;-35.352;149.036;2023-04-25T10:02:43;29.38;;;23.13;;
39694;SDS011;25367;-35.352;149.036;2023-04-25T10:05:36;32.38;;;23.70;;
39694;SDS011;25367;-35.352;149.036;2023-04-25T10:08:11;33.05;;;24.33;;
39694;SDS011;25367;-35.352;149.036;2023-04-25T10:10:47;33.50;;;22.95;;
39694;SDS011;25367;-35.352;149.036;2023-04-25T10:13:18;36.25;;;23.73;;
39694;SDS011;25367;-35.352;149.036;2023-04-25T10:15:50;30.45;;;22.55;;
39694;SDS011;25367;-35.352;149.036;2023-04-25T10:20:52;33.95;;;22.27;;
39694;SDS011;25367;-35.352;149.036;2023-04-25T10:23:25;34.13;;;20.90;;
39694;SDS011;25367;-35.352;149.036;2023-04-25T10:26:02;28.85;;;17.33;;
39694;SDS011;25367;-35.352;149.036;2023-04-25T10:31:27;21.38;;;13.25;;
39694;SDS011;25367;-35.352;149.036;2023-04-25T10:33:59;21.70;;;12.25;;
39694;SDS011;25367;-35.352;149.036;2023-04-25T10:36:31;23.48;;;11.45;;
39694;SDS011;25367;-35.352;149.036;2023-04-25T10:39:03;20.20;;;12.70;;
39694;SDS011;25367;-35.352;149.036;2023-04-25T10:41:46;14.35;;;10.75;;
39694;SDS011;25367;-35.352;149.036;2023-04-25T10:44:23;15.27;;;9.73;;
39694;SDS011;25367;-35.352;149.036;2023-04-25T10:46:56;14.25;;;10.50;;
39694;SDS011;25367;-35.352;149.036;2023-04-25T10:49:33;17.52;;;10.98;;
39694;SDS011;25367;-35.352;149.036;2023-04-25T10:52:16;20.85;;;9.88;;
39694;SDS011;25367;-35.352;149.036;2023-04-25T10:54:52;11.25;;;8.63;;
39694;SDS011;25367;-35.352;149.036;2023-04-25T10:57:30;14.68;;;9.68;;
39694;SDS011;25367;-35.352;149.036;2023-04-25T11:00:11;12.38;;;8.65;;
39694;SDS011;25367;-35.352;149.036;2023-04-25T11:02:42;12.40;;;8.90;;
39694;SDS011;25367;-35.352;149.036;2023-04-25T11:07:57;11.93;;;8.70;;
39694;SDS011;25367;-35.352;149.036;2023-04-25T11:10:27;12.80;;;7.85;;
39694;SDS011;25367;-35.352;149.036;2023-04-25T11:13:00;14.70;;;9.43;;
39694;SDS011;25367;-35.352;149.036;2023-04-25T11:15:29;10.30;;;7.47;;
39694;SDS011;25367;-35.352;149.036;2023-04-25T11:17:59;10.85;;;7.55;;
39694;SDS011;25367;-35.352;149.036;2023-04-25T11:20:28;10.85;;;7.03;;
39694;SDS011;25367;-35.352;149.036;2023-04-25T11:22:58;9.93;;;6.75;;
39694;SDS011;25367;-35.352;149.036;2023-04-25T11:25:28;11.02;;;6.45;;
39694;SDS011;25367;-35.352;149.036;2023-04-25T11:28:00;10.65;;;6.32;;
39694;SDS011;25367;-35.352;149.036;2023-04-25T11:30:30;15.57;;;6.50;;
39694;SDS011;25367;-35.352;149.036;2023-04-25T11:32:59;9.18;;;6.22;;
39694;SDS011;25367;-35.352;149.036;2023-04-25T11:35:29;9.77;;;6.57;;
39694;SDS011;25367;-35.352;149.036;2023-04-25T11:37:59;11.10;;;5.63;;
39694;SDS011;25367;-35.352;149.036;2023-04-25T11:40:28;11.98;;;6.43;;
39694;SDS011;25367;-35.352;149.036;2023-04-25T11:43:01;8.60;;;5.85;;
39694;SDS011;25367;-35.352;149.036;2023-04-25T11:45:31;8.60;;;5.50;;
39694;SDS011;25367;-35.352;149.036;2023-04-25T11:48:01;11.13;;;5.75;;
39694;SDS011;25367;-35.352;149.036;2023-04-25T11:50:31;10.48;;;5.40;;
39694;SDS011;25367;-35.352;149.036;2023-04-25T11:53:00;7.85;;;5.85;;
39694;SDS011;25367;-35.352;149.036;2023-04-25T11:55:30;8.95;;;5.90;;
39694;SDS011;25367;-35.352;149.036;2023-04-25T11:58:03;7.68;;;4.72;;
39694;SDS011;25367;-35.352;149.036;2023-04-25T12:03:01;9.48;;;4.75;;
39694;SDS011;25367;-35.352;149.036;2023-04-25T12:05:31;21.98;;;6.57;;
39694;SDS011;25367;-35.352;149.036;2023-04-25T12:08:10;11.02;;;5.45;;
39694;SDS011;25367;-35.352;149.036;2023-04-25T12:10:40;7.25;;;4.90;;
39694;SDS011;25367;-35.352;149.036;2023-04-25T12:13:22;6.68;;;4.68;;
39694;SDS011;25367;-35.352;149.036;2023-04-25T12:15:52;7.03;;;4.82;;
39694;SDS011;25367;-35.352;149.036;2023-04-25T12:18:23;7.53;;;4.10;;
39694;SDS011;25367;-35.352;149.036;2023-04-25T12:20:53;5.22;;;3.92;;
39694;SDS011;25367;-35.352;149.036;2023-04-25T12:23:26;6.45;;;3.80;;
39694;SDS011;25367;-35.352;149.036;2023-04-25T12:28:26;9.45;;;4.55;;
39694;SDS011;25367;-35.352;149.036;2023-04-25T12:30:56;6.80;;;4.35;;
39694;SDS011;25367;-35.352;149.036;2023-04-25T12:33:27;6.63;;;4.00;;
39694;SDS011;25367;-35.352;149.036;2023-04-25T12:35:57;5.30;;;3.67;;
39694;SDS011;25367;-35.352;149.036;2023-04-25T12:38:27;6.88;;;3.88;;
39694;SDS011;25367;-35.352;149.036;2023-04-25T12:40:57;7.72;;;3.72;;
39694;SDS011;25367;-35.352;149.036;2023-04-25T12:43:29;6.10;;;3.38;;
39694;SDS011;25367;-35.352;149.036;2023-04-25T12:45:59;4.15;;;3.13;;
39694;SDS011;25367;-35.352;149.036;2023-04-25T12:48:29;7.57;;;3.88;;
39694;SDS011;25367;-35.352;149.036;2023-04-25T12:50:59;5.88;;;3.08;;
39694;SDS011;25367;-35.352;149.036;2023-04-25T12:53:29;8.30;;;3.22;;
39694;SDS011;25367;-35.352;149.036;2023-04-25T12:55:58;10.95;;;4.20;;
39694;SDS011;25367;-35.352;149.036;2023-04-25T12:58:31;5.35;;;3.60;;
39694;SDS011;25367;-35.352;149.036;2023-04-25T13:03:29;4.68;;;3.25;;
39694;SDS011;25367;-35.352;149.036;2023-04-25T13:05:58;5.30;;;3.50;;
39694;SDS011;25367;-35.352;149.036;2023-04-25T13:08:28;5.03;;;3.33;;
39694;SDS011;25367;-35.352;149.036;2023-04-25T13:10:58;3.78;;;2.42;;
39694;SDS011;25367;-35.352;149.036;2023-04-25T13:13:27;5.15;;;3.47;;
39694;SDS011;25367;-35.352;149.036;2023-04-25T13:16:00;4.75;;;3.35;;
39694;SDS011;25367;-35.352;149.036;2023-04-25T13:18:30;5.68;;;3.15;;
39694;SDS011;25367;-35.352;149.036;2023-04-25T13:21:00;3.75;;;2.78;;
39694;SDS011;25367;-35.352;149.036;2023-04-25T13:23:30;4.32;;;2.92;;
39694;SDS011;25367;-35.352;149.036;2023-04-25T13:26:00;4.82;;;3.08;;
39694;SDS011;25367;-35.352;149.036;2023-04-25T13:28:32;4.57;;;2.97;;
39694;SDS011;25367;-35.352;149.036;2023-04-25T13:31:02;3.28;;;2.40;;
39694;SDS011;25367;-35.352;149.036;2023-04-25T13:33:33;5.25;;;3.15;;
39694;SDS011;25367;-35.352;149.036;2023-04-25T13:36:02;6.05;;;2.30;;
39694;SDS011;25367;-35.352;149.036;2023-04-25T13:38:32;6.65;;;2.92;;
39694;SDS011;25367;-35.352;149.036;2023-04-25T13:41:01;6.60;;;2.92;;
39694;SDS011;25367;-35.352;149.036;2023-04-25T13:43:34;3.90;;;2.47;;
39694;SDS011;25367;-35.352;149.036;2023-04-25T13:46:04;4.78;;;2.58;;
39694;SDS011;25367;-35.352;149.036;2023-04-25T13:48:33;3.42;;;2.13;;
39694;SDS011;25367;-35.352;149.036;2023-04-25T13:51:03;3.78;;;2.53;;
39694;SDS011;25367;-35.352;149.036;2023-04-25T13:53:33;4.75;;;2.40;;
39694;SDS011;25367;-35.352;149.036;2023-04-25T13:56:03;3.58;;;2.40;;
39694;SDS011;25367;-35.352;149.036;2023-04-25T13:58:36;3.17;;;2.20;;
39694;SDS011;25367;-35.352;149.036;2023-04-25T14:01:05;4.70;;;2.53;;
39694;SDS011;25367;-35.352;149.036;2023-04-25T14:03:35;3.28;;;2.08;;
39694;SDS011;25367;-35.352;149.036;2023-04-25T14:06:05;3.10;;;1.98;;
39694;SDS011;25367;-35.352;149.036;2023-04-25T21:21:22;4.95;;;1.70;;
39694;SDS011;25367;-35.352;149.036;2023-04-25T21:23:52;1.60;;;1.08;;
39694;SDS011;25367;-35.352;149.036;2023-04-25T21:26:21;3.10;;;1.65;;
39694;SDS011;25367;-35.352;149.036;2023-04-25T21:28:50;3.55;;;1.30;;
39694;SDS011;25367;-35.352;149.036;2023-04-25T21:31:20;1.73;;;1.48;;
39694;SDS011;25367;-35.352;149.036;2023-04-25T21:33:49;4.15;;;1.38;;
39694;SDS011;25367;-35.352;149.036;2023-04-25T21:36:21;4.57;;;1.83;;
39694;SDS011;25367;-35.352;149.036;2023-04-25T21:38:51;2.83;;;1.63;;
39694;SDS011;25367;-35.352;149.036;2023-04-25T21:41:20;1.77;;;1.30;;
39694;SDS011;25367;-35.352;149.036;2023-04-25T21:43:49;2.70;;;1.27;;
39694;SDS011;25367;-35.352;149.036;2023-04-25T21:46:19;2.65;;;1.27;;
39694;SDS011;25367;-35.352;149.036;2023-04-25T21:48:48;1.83;;;1.13;;
39694;SDS011;25367;-35.352;149.036;2023-04-25T21:51:18;6.85;;;1.35;;
39694;SDS011;25367;-35.352;149.036;2023-04-25T21:53:51;2.55;;;1.20;;
39694;SDS011;25367;-35.352;149.036;2023-04-25T21:56:20;1.67;;;1.30;;
39694;SDS011;25367;-35.352;149.036;2023-04-25T21:58:49;2.17;;;1.48;;
39694;SDS011;25367;-35.352;149.036;2023-04-25T22:01:19;2.13;;;1.30;;
39694;SDS011;25367;-35.352;149.036;2023-04-25T22:03:49;3.08;;;1.20;;
39694;SDS011;25367;-35.352;149.036;2023-04-25T22:06:19;3.42;;;1.15;;
39694;SDS011;25367;-35.352;149.036;2023-04-25T22:08:51;3.78;;;1.58;;
39694;SDS011;25367;-35.352;149.036;2023-04-25T22:11:20;5.75;;;1.58;;
39694;SDS011;25367;-35.352;149.036;2023-04-25T22:13:50;6.05;;;1.60;;